Time;durP1;ratioP1;P1;durP2;ratioP2;P2;SDS_P1;SDS_P2;PMS_P1;PMS_P2;Temp;Humidity;BMP_temperature;BMP_pressure;BME280_temperature;BME280_humidity;BME280_pressure;Samples;Min_cycle;Max_cycle;Signal;HPM_P1;HPM_P2
2022/07/08 00:00:57;;;;;;;4.43;2.97;;;;;;;16.14;70.10;93476.41;5112777;28;20489;-41
2022/07/08 00:03:23;;;;;;;2.88;2.67;;;;;;;15.92;71.50;93472.72;5112666;28;20473;-42
2022/07/08 00:05:49;;;;;;;4.40;3.03;;;;;;;15.72;72.49;93470.47;5112641;28;20031;-43
2022/07/08 00:08:14;;;;;;;4.00;2.92;;;;;;;15.78;71.72;93474.44;5112193;28;20034;-43
2022/07/08 00:10:40;;;;;;;3.20;2.90;;;;;;;15.77;71.13;93475.00;5111411;28;20181;-44
2022/07/08 00:13:05;;;;;;;6.68;2.90;;;;;;;15.59;71.45;93468.09;5112155;28;20027;-43
2022/07/08 00:15:31;;;;;;;6.22;3.28;;;;;;;15.59;71.56;93463.22;5111787;28;20152;-44
2022/07/08 00:17:56;;;;;;;3.40;3.10;;;;;;;15.62;71.29;93455.78;5111165;28;20066;-43
2022/07/08 00:20:22;;;;;;;3.65;2.92;;;;;;;15.73;70.64;93458.00;5110761;28;20043;-42
2022/07/08 00:22:47;;;;;;;3.08;2.35;;;;;;;15.68;71.22;93454.19;5112010;28;20382;-43
2022/07/08 00:25:13;;;;;;;5.10;3.15;;;;;;;15.84;70.63;93454.66;5112028;28;20020;-44
2022/07/08 00:27:38;;;;;;;4.30;2.60;;;;;;;15.90;70.43;93449.53;5111882;28;20076;-43
2022/07/08 00:30:05;;;;;;;3.33;2.30;;;;;;;15.89;70.10;93457.19;5112069;28;20022;-42
2022/07/08 00:32:30;;;;;;;3.75;2.90;;;;;;;15.85;69.73;93456.84;5111854;28;20476;-42
2022/07/08 00:34:55;;;;;;;3.38;2.83;;;;;;;15.32;70.67;93423.59;5111822;28;20027;-43
2022/07/08 00:37:21;;;;;;;5.50;2.55;;;;;;;15.33;71.52;93452.16;5111853;28;20039;-42
2022/07/08 00:39:47;;;;;;;3.38;3.08;;;;;;;15.17;72.30;93446.81;5111629;28;20024;-43
2022/07/08 00:42:12;;;;;;;5.18;3.28;;;;;;;15.10;73.56;93446.91;5111621;28;20059;-43
2022/07/08 00:44:37;;;;;;;4.43;3.13;;;;;;;15.06;74.04;93449.38;5111816;28;20023;-42
2022/07/08 00:47:03;;;;;;;5.70;3.30;;;;;;;15.13;74.24;93452.06;5111240;28;20043;-42
2022/07/08 00:49:28;;;;;;;4.88;3.30;;;;;;;15.02;73.59;93455.38;5111877;28;20023;-42
2022/07/08 00:51:54;;;;;;;3.78;2.95;;;;;;;15.05;73.60;93445.16;5111423;28;20412;-43
2022/07/08 00:54:21;;;;;;;7.65;3.20;;;;;;;15.15;73.16;93454.28;5093549;28;20030;-43
2022/07/08 00:56:47;;;;;;;7.22;3.28;;;;;;;15.15;73.21;93437.59;5093500;28;20027;-42
2022/07/08 00:59:12;;;;;;;6.65;3.60;;;;;;;14.87;73.23;93416.69;5111522;28;20089;-42
2022/07/08 01:01:38;;;;;;;3.95;3.58;;;;;;;14.90;73.69;93439.81;5111263;28;20027;-43
2022/07/08 01:04:04;;;;;;;7.20;3.90;;;;;;;15.10;72.82;93435.78;5111096;28;20491;-41
2022/07/08 01:06:30;;;;;;;3.38;2.97;;;;;;;15.24;72.78;93445.25;5111581;28;20067;-41
2022/07/08 01:08:55;;;;;;;5.22;3.05;;;;;;;15.33;71.86;93443.81;5111036;28;20084;-41
2022/07/08 01:11:21;;;;;;;3.10;2.80;;;;;;;15.25;72.31;93440.38;5111420;28;20027;-41
2022/07/08 01:13:47;;;;;;;5.70;3.03;;;;;;;15.28;71.97;93445.53;5111025;28;20495;-41
2022/07/08 01:16:13;;;;;;;3.83;2.97;;;;;;;15.34;71.57;93442.47;5109847;28;20072;-41
2022/07/08 01:18:40;;;;;;;4.50;3.08;;;;;;;15.08;72.04;93411.34;5110866;28;20527;-41
2022/07/08 01:21:05;;;;;;;3.40;3.10;;;;;;;15.43;71.43;93447.34;5108917;28;20128;-42
2022/07/08 01:23:30;;;;;;;11.27;2.70;;;;;;;15.39;71.43;93445.00;5105366;28;20073;-43
2022/07/08 01:25:56;;;;;;;3.70;3.00;;;;;;;15.40;71.02;93451.31;5110784;28;20035;-43
2022/07/08 01:28:22;;;;;;;4.32;3.25;;;;;;;15.20;71.47;93442.16;5110815;28;20051;-44
2022/07/08 01:30:48;;;;;;;4.30;3.10;;;;;;;15.25;71.67;93443.16;5092985;28;20019;-43
2022/07/08 01:33:13;;;;;;;3.92;2.70;;;;;;;15.18;71.61;93450.34;5110953;28;20024;-44
2022/07/08 01:35:38;;;;;;;3.78;3.45;;;;;;;14.91;72.52;93461.47;5110713;28;20027;-44
2022/07/08 01:38:04;;;;;;;3.80;3.20;;;;;;;14.77;73.58;93449.22;5110542;28;20019;-43
2022/07/08 01:40:29;;;;;;;3.47;2.97;;;;;;;15.06;72.17;93443.84;5111065;28;20621;-44
2022/07/08 01:42:55;;;;;;;3.20;2.90;;;;;;;15.12;71.66;93450.59;5110992;28;20020;-44
2022/07/08 01:45:20;;;;;;;5.32;2.75;;;;;;;15.04;72.22;93458.31;5110002;28;20423;-44
2022/07/08 01:47:46;;;;;;;3.50;3.20;;;;;;;15.04;72.69;93443.69;5110458;28;20440;-44
2022/07/08 01:50:11;;;;;;;5.05;3.55;;;;;;;15.04;72.82;93449.97;5110729;28;20035;-45
2022/07/08 01:52:37;;;;;;;5.50;3.65;;;;;;;15.03;72.86;93456.84;5110560;28;20541;-43
2022/07/08 01:55:04;;;;;;;4.53;3.40;;;;;;;14.89;72.91;93444.63;5110658;28;20038;-41
2022/07/08 01:57:29;;;;;;;4.10;3.70;;;;;;;14.95;72.94;93456.22;5110400;28;20032;-41
2022/07/08 01:59:54;;;;;;;5.45;3.83;;;;;;;14.95;73.12;93455.47;5110776;28;20027;-43
2022/07/08 02:02:21;;;;;;;4.60;3.60;;;;;;;15.10;72.44;93452.47;5109652;28;20038;-43
2022/07/08 02:04:47;;;;;;;3.92;3.53;;;;;;;15.00;73.05;93457.28;5110640;28;20027;-41
2022/07/08 02:07:13;;;;;;;5.05;3.53;;;;;;;15.20;72.65;93456.06;5110731;28;20038;-41
2022/07/08 02:09:39;;;;;;;4.47;3.75;;;;;;;15.19;72.61;93446.97;5110583;28;20016;-42
2022/07/08 02:12:18;;;;;;;4.95;3.28;;;;;;;15.13;72.78;93440.22;5110215;28;20027;-41
2022/07/08 02:14:47;;;;;;;3.60;3.30;;;;;;;15.07;72.53;93443.25;5110641;28;20043;-41
2022/07/08 02:17:14;;;;;;;4.75;3.50;;;;;;;14.77;73.08;93442.97;5110610;28;20051;-42
2022/07/08 02:19:40;;;;;;;8.30;3.78;;;;;;;14.66;74.13;93446.25;5109147;28;20106;-43
2022/07/08 02:22:07;;;;;;;3.67;3.17;;;;;;;14.81;73.89;93451.59;5109966;28;20024;-42
2022/07/08 02:24:32;;;;;;;3.60;3.30;;;;;;;15.06;72.43;93452.16;5110346;28;20114;-42
2022/07/08 02:26:57;;;;;;;6.97;3.45;;;;;;;15.07;72.38;93451.59;5110532;28;20104;-44
2022/07/08 02:29:23;;;;;;;7.05;3.58;;;;;;;15.00;73.04;93454.50;5110511;28;20405;-41
2022/07/08 02:31:49;;;;;;;3.60;3.08;;;;;;;14.76;73.18;93458.91;5110234;28;20424;-44
2022/07/08 02:34:14;;;;;;;8.70;4.00;;;;;;;14.52;74.45;93453.47;5110332;28;20081;-43
2022/07/08 02:36:39;;;;;;;4.07;3.67;;;;;;;14.60;74.32;93457.59;5110206;28;20023;-42
2022/07/08 02:39:05;;;;;;;3.88;3.47;;;;;;;14.73;72.96;93462.06;5109936;28;20034;-43
2022/07/08 02:41:31;;;;;;;4.13;3.72;;;;;;;14.79;72.83;93468.13;5110078;28;20026;-41
2022/07/08 02:43:56;;;;;;;5.20;3.72;;;;;;;14.68;72.98;93458.25;5110213;28;20031;-42
2022/07/08 02:46:22;;;;;;;3.47;3.17;;;;;;;14.68;73.17;93460.31;5109528;28;20079;-44
2022/07/08 02:48:48;;;;;;;4.07;3.67;;;;;;;14.71;73.15;93461.91;5110037;28;20024;-45
2022/07/08 02:51:13;;;;;;;4.68;3.45;;;;;;;14.76;72.85;93464.44;5109999;28;20178;-44
2022/07/08 02:53:38;;;;;;;3.95;3.53;;;;;;;14.84;72.50;93464.34;5109896;28;20027;-43
2022/07/08 02:56:04;;;;;;;4.40;3.45;;;;;;;14.88;72.42;93465.38;5103366;28;20032;-44
2022/07/08 02:58:30;;;;;;;6.07;4.13;;;;;;;14.73;72.80;93459.28;5096287;28;20020;-44
2022/07/08 03:00:55;;;;;;;6.25;4.07;;;;;;;14.66;73.70;93460.16;5093414;28;20024;-45
2022/07/08 03:03:21;;;;;;;8.85;4.80;;;;;;;14.72;73.33;93455.81;5093144;28;20035;-40
2022/07/08 03:05:46;;;;;;;7.53;4.07;;;;;;;14.72;73.42;93461.34;5093343;28;20016;-43
2022/07/08 03:08:11;;;;;;;4.80;3.88;;;;;;;14.64;74.16;93460.69;5093277;28;20408;-41
2022/07/08 03:10:37;;;;;;;9.27;4.32;;;;;;;14.74;73.61;93461.50;5104083;28;20030;-44
2022/07/08 03:13:02;;;;;;;8.60;4.43;;;;;;;14.50;74.50;93459.59;5113411;28;20023;-41
2022/07/08 03:15:28;;;;;;;6.10;4.53;;;;;;;14.55;75.01;93455.09;5113288;28;20032;-41
2022/07/08 03:17:53;;;;;;;10.95;4.97;;;;;;;14.58;73.42;93446.34;5113240;28;20023;-41
2022/07/08 03:20:19;;;;;;;4.95;4.43;;;;;;;14.49;73.77;93458.13;5113434;28;20024;-41
2022/07/08 03:22:45;;;;;;;5.57;4.97;;;;;;;14.55;73.96;93455.84;5112285;28;20560;-42
2022/07/08 03:25:11;;;;;;;5.15;3.63;;;;;;;14.59;73.58;93456.16;5113314;28;20054;-43
2022/07/08 03:27:36;;;;;;;4.10;3.70;;;;;;;14.66;72.26;93449.03;5113356;28;20484;-41
2022/07/08 03:30:06;;;;;;;6.43;4.57;;;;;;;14.67;72.25;93447.69;5113059;28;20024;-41
2022/07/08 03:32:32;;;;;;;6.68;4.65;;;;;;;14.76;72.23;93463.72;5113264;28;20026;-42
2022/07/08 03:34:58;;;;;;;6.10;5.38;;;;;;;14.67;72.93;93462.34;5113300;28;20020;-42
2022/07/08 03:37:23;;;;;;;9.98;5.82;;;;;;;14.45;74.05;93455.03;5113234;28;20557;-42
2022/07/08 03:39:50;;;;;;;6.65;5.03;;;;;;;14.27;74.96;93436.88;5113031;28;20115;-41
2022/07/08 03:42:16;;;;;;;6.63;5.03;;;;;;;14.50;75.13;93451.25;5112934;28;20441;-42
2022/07/08 03:44:41;;;;;;;5.63;4.88;;;;;;;14.63;74.93;93461.28;5112546;28;20031;-41
2022/07/08 03:47:07;;;;;;;6.40;4.70;;;;;;;14.78;74.32;93461.81;5112722;28;20520;-42
2022/07/08 03:49:33;;;;;;;8.23;4.53;;;;;;;14.82;74.03;93464.91;5112757;28;20007;-41
2022/07/08 03:51:58;;;;;;;5.47;4.38;;;;;;;14.92;73.77;93467.78;5112610;28;20030;-43
2022/07/08 03:54:25;;;;;;;6.63;4.47;;;;;;;14.82;73.93;93464.19;5112631;28;20016;-42
2022/07/08 03:56:51;;;;;;;5.95;4.10;;;;;;;14.89;74.13;93469.66;5112862;28;20031;-42
2022/07/08 03:59:18;;;;;;;8.88;4.50;;;;;;;14.77;74.43;93465.19;5112331;28;20450;-41
2022/07/08 04:01:43;;;;;;;4.45;4.05;;;;;;;14.72;75.30;93469.69;5112468;28;20081;-41
2022/07/08 04:04:09;;;;;;;5.75;4.70;;;;;;;14.77;75.06;93460.34;5112273;28;20015;-44
2022/07/08 04:06:35;;;;;;;5.65;4.70;;;;;;;14.77;74.75;93443.66;5112654;28;20102;-41
2022/07/08 04:09:01;;;;;;;6.95;4.60;;;;;;;15.00;75.20;93462.81;5112021;28;20026;-43
2022/07/08 04:11:26;;;;;;;6.60;5.30;;;;;;;15.14;74.93;93461.13;5112497;28;20019;-42
2022/07/08 04:13:52;;;;;;;4.55;4.10;;;;;;;15.07;75.55;93459.94;5112233;28;20534;-43
2022/07/08 04:16:17;;;;;;;5.47;4.70;;;;;;;15.06;75.03;93460.50;5111339;28;20024;-42
2022/07/08 04:18:43;;;;;;;5.45;4.65;;;;;;;15.19;75.07;93460.88;5112153;28;20073;-44
2022/07/08 04:21:09;;;;;;;7.05;4.75;;;;;;;15.27;74.11;93455.19;5111354;28;20028;-42
2022/07/08 04:23:35;;;;;;;4.10;3.67;;;;;;;15.42;73.49;93454.25;5112070;28;20027;-43
2022/07/08 04:26:00;;;;;;;5.93;4.30;;;;;;;15.54;72.27;93452.41;5111227;28;20024;-43
2022/07/08 04:28:26;;;;;;;5.15;4.65;;;;;;;15.45;73.18;93453.81;5111902;28;20046;-42
2022/07/08 04:30:52;;;;;;;4.63;4.15;;;;;;;15.45;73.31;93464.22;5111918;28;20035;-42
2022/07/08 04:33:17;;;;;;;5.90;5.05;;;;;;;15.46;73.02;93465.69;5111778;28;20023;-42
2022/07/08 04:35:43;;;;;;;5.20;4.45;;;;;;;15.46;73.09;93466.44;5111857;28;20060;-41
2022/07/08 04:38:08;;;;;;;7.10;4.97;;;;;;;15.47;73.27;93467.91;5100989;28;20031;-42
2022/07/08 04:40:34;;;;;;;5.07;4.57;;;;;;;15.55;73.50;93468.50;5100698;28;20028;-42
2022/07/08 04:42:59;;;;;;;9.00;6.07;;;;;;;15.61;74.02;93471.75;5105491;28;20032;-42
2022/07/08 04:45:25;;;;;;;7.40;5.03;;;;;;;15.57;74.64;93465.16;5097165;28;20024;-44
2022/07/08 04:47:51;;;;;;;7.72;5.70;;;;;;;15.65;74.81;93474.09;5111469;28;20039;-42
2022/07/08 04:50:17;;;;;;;7.50;6.03;;;;;;;15.66;75.13;93470.00;5111453;28;20031;-42
2022/07/08 04:52:42;;;;;;;7.90;6.88;;;;;;;15.69;75.52;93471.63;5109478;28;20028;-42
2022/07/08 04:55:27;;;;;;;10.13;6.13;;;;;;;15.80;75.42;93469.03;5109714;28;20011;-41
2022/07/08 04:57:56;;;;;;;6.93;6.22;;;;;;;15.90;75.71;93469.78;5110812;28;20044;-41
2022/07/08 05:00:22;;;;;;;13.70;8.38;;;;;;;15.73;77.02;93452.44;5111691;28;20059;-41
2022/07/08 05:02:47;;;;;;;11.35;8.45;;;;;;;15.83;78.56;93465.06;5111171;28;20023;-41
2022/07/08 05:05:13;;;;;;;21.75;11.95;;;;;;;15.96;78.61;93452.06;5111528;28;20106;-41
2022/07/08 05:07:38;;;;;;;17.73;12.60;;;;;;;16.14;78.31;93453.38;5111414;28;20564;-41
2022/07/08 05:10:04;;;;;;;25.27;14.80;;;;;;;16.24;78.32;93457.63;5110208;28;20458;-44
2022/07/08 05:12:30;;;;;;;15.15;10.02;;;;;;;16.34;77.72;93463.97;5105681;28;20020;-41
2022/07/08 05:14:56;;;;;;;24.42;11.10;;;;;;;16.46;77.29;93462.03;5111226;28;20419;-41
2022/07/08 05:17:22;;;;;;;17.80;10.68;;;;;;;16.62;77.62;93465.28;5111307;28;20102;-41
2022/07/08 05:19:47;;;;;;;13.85;9.52;;;;;;;16.72;77.33;93456.94;5110109;28;20382;-45
2022/07/08 05:22:12;;;;;;;12.63;9.43;;;;;;;16.82;77.31;93466.00;5110824;28;20019;-44
2022/07/08 05:24:38;;;;;;;12.05;9.02;;;;;;;16.89;77.39;93465.13;5110604;28;20047;-43
2022/07/08 05:27:04;;;;;;;12.82;9.57;;;;;;;17.03;76.78;93464.06;5110100;28;20556;-43
2022/07/08 05:29:29;;;;;;;14.90;9.07;;;;;;;16.97;77.65;93462.91;5110488;28;20020;-43
2022/07/08 05:31:55;;;;;;;12.02;9.73;;;;;;;17.05;77.67;93452.31;5109502;28;20059;-43
2022/07/08 05:34:21;;;;;;;11.75;8.00;;;;;;;17.17;77.70;93453.88;5107663;28;20072;-44
2022/07/08 05:36:47;;;;;;;7.97;7.18;;;;;;;17.21;78.47;93453.44;5110529;28;20027;-44
2022/07/08 05:39:13;;;;;;;8.32;6.78;;;;;;;17.29;79.22;93454.00;5110394;28;20019;-43
2022/07/08 05:41:38;;;;;;;9.10;7.20;;;;;;;17.40;78.51;93450.56;5110093;28;20389;-44
2022/07/08 05:44:04;;;;;;;7.38;6.55;;;;;;;17.53;78.73;93449.38;5110064;28;20019;-44
2022/07/08 05:46:30;;;;;;;11.25;7.45;;;;;;;17.50;78.42;93420.59;5107578;28;20043;-43
2022/07/08 05:48:55;;;;;;;10.75;6.28;;;;;;;17.92;77.89;93456.22;5107375;28;20059;-42
2022/07/08 05:51:22;;;;;;;8.55;7.35;;;;;;;17.95;77.33;93452.25;5109996;28;20972;-43
2022/07/08 05:53:47;;;;;;;8.45;6.82;;;;;;;18.12;78.55;93454.78;5110323;28;20027;-43
2022/07/08 05:56:13;;;;;;;7.28;5.78;;;;;;;18.25;77.45;93454.25;5110247;28;20089;-48
2022/07/08 05:58:38;;;;;;;8.38;6.78;;;;;;;18.11;78.11;93453.31;5096348;28;20115;-43
2022/07/08 06:01:04;;;;;;;6.72;5.75;;;;;;;18.01;79.08;93441.47;5108009;28;20023;-43
2022/07/08 06:03:29;;;;;;;6.80;5.88;;;;;;;18.19;79.69;93451.06;5107354;28;20035;-43
2022/07/08 06:05:55;;;;;;;7.07;6.03;;;;;;;18.33;79.88;93443.59;5108195;28;20035;-43
2022/07/08 06:08:21;;;;;;;10.70;5.40;;;;;;;18.57;80.74;93438.88;5107144;28;20397;-45
2022/07/08 06:10:46;;;;;;;5.35;4.30;;;;;;;18.77;78.90;93438.09;5107781;28;20019;-43
2022/07/08 06:13:11;;;;;;;5.22;4.72;;;;;;;18.77;78.61;93426.91;5108113;28;20100;-45
2022/07/08 06:15:37;;;;;;;5.75;4.80;;;;;;;18.97;78.45;93427.47;5108159;28;20035;-43
2022/07/08 06:18:03;;;;;;;5.50;4.70;;;;;;;19.15;78.31;93427.84;5108241;28;20115;-44
2022/07/08 06:20:29;;;;;;;4.88;4.38;;;;;;;19.21;76.88;93431.03;5107297;28;20470;-43
2022/07/08 06:22:54;;;;;;;6.53;4.70;;;;;;;19.41;75.73;93435.81;5106605;28;20032;-43
2022/07/08 06:25:20;;;;;;;5.63;4.13;;;;;;;19.54;75.70;93432.44;5108265;28;20122;-42
2022/07/08 06:27:45;;;;;;;8.75;4.20;;;;;;;19.53;74.39;93411.34;5107980;28;20404;-43
2022/07/08 06:30:11;;;;;;;5.43;4.25;;;;;;;19.81;74.74;93436.81;5107715;28;20496;-41
2022/07/08 06:32:37;;;;;;;5.22;3.80;;;;;;;19.89;74.58;93420.47;5111274;28;20031;-41
2022/07/08 06:35:02;;;;;;;6.18;4.53;;;;;;;20.06;73.10;93425.69;5111792;28;20034;-42
2022/07/08 06:37:28;;;;;;;3.40;3.10;;;;;;;19.91;72.70;93395.38;5112245;28;20041;-41
2022/07/08 06:39:54;;;;;;;4.50;3.97;;;;;;;20.17;72.40;93424.94;5111951;28;20080;-43
2022/07/08 06:42:20;;;;;;;4.35;3.95;;;;;;;20.26;71.90;93410.06;5111571;28;20508;-42
2022/07/08 06:44:45;;;;;;;4.82;3.42;;;;;;;20.40;71.59;93416.47;5110912;28;20023;-41
2022/07/08 06:47:11;;;;;;;4.00;3.70;;;;;;;20.52;72.18;93419.25;5111027;28;20476;-42
2022/07/08 06:49:37;;;;;;;5.40;4.45;;;;;;;20.61;70.50;93405.06;5110347;28;20027;-44
2022/07/08 06:52:03;;;;;;;4.38;3.92;;;;;;;20.69;70.29;93413.94;5110500;28;20038;-42
2022/07/08 06:54:37;;;;;;;3.30;3.00;;;;;;;20.78;70.15;93404.63;5111209;28;20514;-44
2022/07/08 06:57:04;;;;;;;4.07;3.67;;;;;;;20.82;69.16;93409.72;5111468;28;20070;-42
2022/07/08 06:59:30;;;;;;;3.40;2.90;;;;;;;20.88;69.56;93410.78;5108208;28;20035;-44
2022/07/08 07:01:55;;;;;;;3.63;3.15;;;;;;;20.99;68.78;93409.28;5109618;28;20039;-43
2022/07/08 07:04:21;;;;;;;5.80;3.60;;;;;;;21.05;68.18;93406.84;5111506;28;20039;-42
2022/07/08 07:06:47;;;;;;;4.82;3.72;;;;;;;20.98;67.51;93402.94;5105410;28;20031;-43
2022/07/08 07:09:13;;;;;;;5.20;3.53;;;;;;;21.04;67.30;93394.16;5111264;28;20053;-43
2022/07/08 07:11:39;;;;;;;5.35;3.28;;;;;;;21.08;67.54;93392.28;5103955;28;20039;-44
2022/07/08 07:14:05;;;;;;;3.80;3.22;;;;;;;21.19;69.68;93390.00;5099530;28;20023;-43
2022/07/08 07:16:31;;;;;;;5.60;3.55;;;;;;;21.25;67.14;93379.09;5096613;28;20039;-42
2022/07/08 07:18:56;;;;;;;3.72;3.42;;;;;;;21.28;68.37;93380.69;5101310;28;20453;-42
2022/07/08 07:21:22;;;;;;;4.03;3.25;;;;;;;21.39;66.88;93386.22;5092972;28;20433;-42
2022/07/08 07:23:47;;;;;;;3.63;3.30;;;;;;;21.54;67.28;93390.50;5089402;28;20036;-43
2022/07/08 07:26:13;;;;;;;6.35;3.45;;;;;;;21.69;65.26;93399.06;5090658;28;20020;-42
2022/07/08 07:28:38;;;;;;;3.55;3.25;;;;;;;21.85;64.87;93385.84;5106243;28;20107;-44
2022/07/08 07:31:04;;;;;;;3.90;3.30;;;;;;;22.20;64.99;93393.94;5104540;28;20039;-45
2022/07/08 07:33:29;;;;;;;3.17;2.88;;;;;;;22.70;60.75;93395.03;5101724;28;20038;-41
2022/07/08 07:35:56;;;;;;;2.90;2.60;;;;;;;23.08;59.19;93385.56;5092563;28;20024;-43
2022/07/08 07:38:21;;;;;;;2.95;2.75;;;;;;;23.61;58.19;93381.00;5107203;28;20032;-42
2022/07/08 07:40:47;;;;;;;5.72;2.33;;;;;;;24.09;54.54;93383.16;5105384;28;20533;-43
2022/07/08 07:43:12;;;;;;;5.05;3.85;;;;;;;24.59;54.68;93384.53;5107524;28;20116;-43
2022/07/08 07:45:37;;;;;;;2.67;2.47;;;;;;;24.98;49.99;93378.38;5109723;28;20031;-42
2022/07/08 07:48:03;;;;;;;3.00;2.70;;;;;;;25.18;51.82;93382.00;5109521;28;20043;-44
2022/07/08 07:50:29;;;;;;;8.95;6.10;;;;;;;25.82;50.72;93380.16;5109826;28;20034;-43
2022/07/08 07:52:54;;;;;;;5.68;4.00;;;;;;;26.10;50.07;93384.03;5104860;28;20035;-43
2022/07/08 07:55:20;;;;;;;6.38;5.40;;;;;;;26.26;49.42;93385.34;5104400;28;20105;-41
2022/07/08 07:57:46;;;;;;;5.35;3.38;;;;;;;26.52;46.60;93396.84;5108549;28;20496;-42
2022/07/08 08:00:13;;;;;;;3.72;3.13;;;;;;;25.70;48.54;93391.75;5106792;28;20457;-44
2022/07/08 08:02:39;;;;;;;3.08;2.78;;;;;;;25.19;51.22;93382.69;5112687;28;20019;-44
2022/07/08 08:05:05;;;;;;;3.35;2.78;;;;;;;24.80;51.57;93388.94;5098577;28;20103;-41
2022/07/08 08:07:30;;;;;;;4.60;4.20;;;;;;;24.50;52.91;93398.97;5093251;28;20034;-41
2022/07/08 08:09:56;;;;;;;5.35;3.70;;;;;;;24.17;53.50;93387.69;5112264;28;20024;-42
2022/07/08 08:12:21;;;;;;;5.13;4.18;;;;;;;24.04;53.10;93392.03;5111313;28;20019;-41
2022/07/08 08:14:47;;;;;;;6.32;4.35;;;;;;;23.81;54.07;93386.81;5099044;28;20530;-42
2022/07/08 08:17:12;;;;;;;3.67;3.22;;;;;;;23.65;53.88;93389.63;5091003;28;20027;-43
2022/07/08 08:19:37;;;;;;;4.50;3.75;;;;;;;23.51;54.55;93397.47;5089914;28;20023;-41
2022/07/08 08:22:03;;;;;;;7.40;5.93;;;;;;;23.40;56.71;93392.72;5090113;28;20020;-42
2022/07/08 08:24:28;;;;;;;3.95;3.55;;;;;;;23.22;55.07;93397.47;5089443;28;20493;-42
2022/07/08 08:26:54;;;;;;;10.85;7.57;;;;;;;23.01;57.22;93393.00;5089184;28;20091;-42
2022/07/08 08:29:19;;;;;;;7.15;5.25;;;;;;;22.89;58.21;93400.88;5089298;28;20489;-43
2022/07/08 08:31:45;;;;;;;4.13;3.72;;;;;;;22.81;57.43;93396.94;5090567;28;20492;-42
2022/07/08 08:34:10;;;;;;;4.13;3.83;;;;;;;22.53;58.66;93399.81;5088854;28;20027;-41
2022/07/08 08:36:36;;;;;;;3.95;3.50;;;;;;;22.44;58.65;93403.59;5086284;28;20111;-41
2022/07/08 08:39:01;;;;;;;3.97;3.20;;;;;;;22.45;59.87;93402.25;5086630;28;20031;-42
2022/07/08 08:41:27;;;;;;;5.40;3.80;;;;;;;22.46;61.10;93406.50;5087612;28;20032;-41
2022/07/08 08:43:53;;;;;;;5.63;3.33;;;;;;;22.45;61.09;93391.00;5097132;28;20560;-42
2022/07/08 08:46:22;;;;;;;5.95;3.10;;;;;;;22.40;60.50;93392.13;5106374;28;20555;-43
2022/07/08 08:48:48;;;;;;;3.13;2.85;;;;;;;22.49;57.24;93384.81;5107579;28;20336;-42
2022/07/08 08:51:13;;;;;;;7.07;3.22;;;;;;;22.54;58.11;93392.13;5108577;28;20019;-41
2022/07/08 08:53:44;;;;;;;3.10;2.55;;;;;;;22.50;59.51;93378.56;5090946;28;20031;-41
2022/07/08 08:56:11;;;;;;;2.95;2.65;;;;;;;22.47;59.69;93384.72;5107840;28;20050;-42
2022/07/08 08:58:53;;;;;;;3.67;2.83;;;;;;;22.40;58.65;93394.94;5106581;28;20027;-41
2022/07/08 09:01:19;;;;;;;3.63;3.33;;;;;;;22.38;58.77;93391.31;5110217;28;20073;-41
2022/07/08 09:03:45;;;;;;;4.10;3.10;;;;;;;22.34;60.35;93391.09;5110515;28;20034;-41
2022/07/08 09:06:11;;;;;;;3.10;2.80;;;;;;;22.36;59.48;93385.59;5104443;28;20027;-41
2022/07/08 09:08:37;;;;;;;3.40;2.40;;;;;;;22.48;59.08;93372.84;5106214;28;20019;-41
2022/07/08 09:11:03;;;;;;;3.78;3.15;;;;;;;23.14;56.79;93388.66;5099673;28;20025;-41
2022/07/08 09:13:29;;;;;;;4.22;2.75;;;;;;;23.35;57.02;93386.16;5102976;28;20026;-42
2022/07/08 09:16:00;;;;;;;3.05;2.85;;;;;;;23.60;56.73;93376.00;5110621;28;20102;-42
2022/07/08 09:18:34;;;;;;;3.45;2.50;;;;;;;23.80;55.85;93371.97;5109049;28;20030;-41
2022/07/08 09:21:00;;;;;;;2.75;2.53;;;;;;;24.41;53.19;93363.28;5109663;28;20020;-41
2022/07/08 09:23:27;;;;;;;3.83;2.63;;;;;;;24.92;53.65;93361.19;5111017;28;20034;-43
2022/07/08 09:25:57;;;;;;;2.40;2.20;;;;;;;25.83;49.70;93368.22;5101276;28;20833;-42
2022/07/08 09:28:41;;;;;;;2.45;2.25;;;;;;;27.33;44.63;93376.81;5090548;28;20020;-45
2022/07/08 09:31:14;;;;;;;2.45;2.17;;;;;;;28.42;42.37;93375.75;5098150;28;20027;-43
2022/07/08 09:33:40;;;;;;;2.40;1.92;;;;;;;28.33;39.40;93382.59;5090665;28;20016;-43
2022/07/08 09:36:07;;;;;;;3.55;2.03;;;;;;;27.54;41.45;93356.19;5090269;28;20020;-40
2022/07/08 09:38:35;;;;;;;3.40;1.95;;;;;;;27.48;41.67;93375.88;5105119;28;20437;-42
2022/07/08 09:41:09;;;;;;;2.03;1.92;;;;;;;27.11;43.46;93374.00;5097906;28;20020;-42
2022/07/08 09:43:49;;;;;;;3.30;2.05;;;;;;;27.09;43.88;93361.88;5095132;28;20038;-40
2022/07/08 09:46:15;;;;;;;3.28;1.70;;;;;;;27.49;44.57;93361.03;5106225;28;20041;-41
2022/07/08 09:48:41;;;;;;;4.68;2.38;;;;;;;28.63;41.95;93354.28;5109752;28;20023;-41
2022/07/08 09:51:08;;;;;;;5.85;2.22;;;;;;;29.12;38.28;93359.78;5110526;28;20536;-42
2022/07/08 09:53:36;;;;;;;3.40;1.98;;;;;;;29.58;38.86;93353.72;5109625;28;20055;-40
2022/07/08 09:56:02;;;;;;;1.77;1.67;;;;;;;29.32;38.77;93355.97;5090484;28;20548;-41
2022/07/08 09:58:30;;;;;;;1.80;1.70;;;;;;;29.80;37.04;93362.78;5095116;28;20092;-42
2022/07/08 10:00:57;;;;;;;2.92;1.40;;;;;;;30.23;35.91;93361.50;5109933;28;20031;-42
2022/07/08 10:03:24;;;;;;;2.00;1.80;;;;;;;30.35;36.94;93359.63;5100014;28;20459;-40
2022/07/08 10:05:49;;;;;;;1.75;1.65;;;;;;;30.47;36.11;93359.13;5092071;28;20024;-41
2022/07/08 10:08:16;;;;;;;4.70;2.10;;;;;;;29.90;38.52;93366.53;5107948;28;20088;-41
2022/07/08 10:10:45;;;;;;;1.40;1.30;;;;;;;29.97;39.42;93367.38;5111015;28;20046;-42
2022/07/08 10:13:11;;;;;;;3.08;1.80;;;;;;;30.84;37.12;93364.06;5109704;28;20109;-41
2022/07/08 10:15:38;;;;;;;1.65;1.55;;;;;;;30.57;34.33;93362.16;5113114;28;20105;-41
2022/07/08 10:18:09;;;;;;;1.80;1.70;;;;;;;30.06;36.54;93368.97;5109693;28;20020;-42
2022/07/08 10:20:37;;;;;;;2.65;1.70;;;;;;;29.12;37.73;93359.78;5106663;28;20085;-42
2022/07/08 10:23:07;;;;;;;1.60;1.50;;;;;;;29.44;39.72;93351.28;5105127;28;20562;-41
2022/07/08 10:25:33;;;;;;;1.80;1.70;;;;;;;29.63;37.50;93352.38;5088576;28;20028;-44
2022/07/08 10:28:10;;;;;;;1.52;1.42;;;;;;;29.66;36.86;93351.78;5108298;28;20034;-47
2022/07/08 10:30:50;;;;;;;1.77;1.67;;;;;;;29.62;35.61;93348.13;5107975;28;20024;-42
2022/07/08 10:33:26;;;;;;;1.95;1.50;;;;;;;29.05;37.02;93355.34;5110259;28;20020;-41
2022/07/08 10:36:06;;;;;;;1.42;1.33;;;;;;;29.00;38.56;93355.94;5109775;28;20041;-47
2022/07/08 10:38:39;;;;;;;1.48;1.38;;;;;;;28.11;39.14;93352.91;5107005;28;20027;-43
2022/07/08 10:41:09;;;;;;;1.70;1.60;;;;;;;27.25;40.32;93356.69;5111968;28;20016;-43
2022/07/08 10:43:36;;;;;;;1.50;1.40;;;;;;;26.39;42.55;93360.25;5109788;28;20487;-44
2022/07/08 10:46:15;;;;;;;1.50;1.40;;;;;;;25.68;43.70;93363.41;5110457;28;20031;-45
2022/07/08 10:48:40;;;;;;;1.80;1.70;;;;;;;25.34;45.51;93359.25;5105882;28;20087;-41
2022/07/08 10:51:06;;;;;;;1.63;1.42;;;;;;;24.97;45.30;93359.97;5107862;28;20040;-44
2022/07/08 10:53:58;;;;;;;5.20;2.13;;;;;;;24.73;49.55;93364.63;5110655;28;20023;-44
2022/07/08 10:56:45;;;;;;;1.55;1.27;;;;;;;24.32;45.69;93355.88;5109437;28;20028;-42
2022/07/08 10:59:27;;;;;;;2.75;1.58;;;;;;;24.22;48.27;93358.25;5110903;28;20115;-43
2022/07/08 11:01:57;;;;;;;2.05;1.85;;;;;;;24.22;48.69;93359.00;5110957;28;20036;-46
2022/07/08 11:04:34;;;;;;;2.00;1.85;;;;;;;24.06;49.69;93352.69;5110135;28;20093;-45
2022/07/08 11:07:17;;;;;;;3.00;1.73;;;;;;;23.93;50.43;93353.50;5109666;28;20544;-43
2022/07/08 11:10:03;;;;;;;2.35;2.05;;;;;;;23.74;49.99;93348.41;5111033;28;20027;-44
2022/07/08 11:12:35;;;;;;;1.67;1.58;;;;;;;23.62;50.17;93350.72;5111373;28;20064;-46
2022/07/08 11:15:02;;;;;;;2.85;1.90;;;;;;;23.61;52.98;93346.44;5110918;28;20084;-45
2022/07/08 11:17:32;;;;;;;6.90;2.42;;;;;;;23.45;54.43;93345.72;5110793;28;20023;-43
2022/07/08 11:20:00;;;;;;;2.00;1.80;;;;;;;23.47;52.75;93346.56;5112214;28;20030;-43
2022/07/08 11:22:26;;;;;;;2.40;2.15;;;;;;;23.46;53.72;93361.25;5111681;28;20102;-41
2022/07/08 11:24:54;;;;;;;2.38;1.95;;;;;;;23.46;54.77;93353.53;5094144;28;20291;-44
2022/07/08 11:27:27;;;;;;;1.90;1.80;;;;;;;23.34;55.71;93345.28;5094142;28;20072;-42
2022/07/08 11:29:54;;;;;;;2.83;1.92;;;;;;;23.57;57.87;93349.81;5110087;28;20028;-42